ELLX/LUX METAR and TAF weather

Enter ICAO airport designator
Station Type Date Time Source
ELLX METAR 2021/05/15 00:50 UTC NOAA

ELLX 150050Z AUTO 22009KT 9999 FEW005/// SCT008/// BKN009/// 08/07 Q1008 NOSIG


Station Type Date Time Source
ELLX Decoded METAR 2021/05/15 00:50 UTC NOAA

Luxembourg / Luxembourg, Luxembourg (ELLX) 49-37N 006-13E 379M
May 14, 2021 - 08:50 PM EDT / 2021.05.15 0050 UTC
Wind: from the SW (220 degrees) at 10 MPH (9 KT):0
Visibility: greater than 7 mile(s):0
Sky conditions: mostly cloudy
Temperature: 46 F (8 C)
Dew Point: 44 F (7 C)
Relative Humidity: 93%
Pressure (altimeter): 29.77 in. Hg (1008 hPa)
ob: ELLX 150050Z AUTO 22009KT 9999 FEW005/// SCT008/// BKN009/// 08/07 Q1008 NOSIG
cycle: 1

Station Type Date Time Source
ELLX TAF 2021/05/14 18:27 UTC NOAA

TAF TAF ELLX 141700Z 1418/1524 20007KT 9999 FEW040
TEMPO 1418/1421 FEW030CB SCT040TCU
BECMG 1423/1502 BKN008 PROB40
TEMPO 1502/1508 3000 -RA BR BKN004
BECMG 1508/1511 BKN017 PROB40
TEMPO 1515/1519 27015G30KT 3000 SHRA BKN015CB

Example: see airport list